createdAt,value
2022-10-31T00:01:15.759Z,6.10
2022-10-31T00:03:42.626Z,5.90
2022-10-31T00:06:09.229Z,5.80
2022-10-31T00:08:35.940Z,5.53
2022-10-31T00:11:02.883Z,5.40
2022-10-31T00:13:29.673Z,5.00
2022-10-31T00:15:56.348Z,5.70
2022-10-31T00:18:22.941Z,4.90
2022-10-31T00:20:49.600Z,5.23
2022-10-31T00:23:16.228Z,5.53
2022-10-31T00:25:42.911Z,5.30
2022-10-31T00:28:11.979Z,5.30
2022-10-31T00:30:38.819Z,4.90
2022-10-31T00:33:06.202Z,5.13
2022-10-31T00:35:33.287Z,5.47
2022-10-31T00:38:00.875Z,5.07
2022-10-31T00:40:27.783Z,8.10
2022-10-31T00:42:54.436Z,5.90
2022-10-31T00:45:21.140Z,5.47
2022-10-31T00:47:48.027Z,5.40
2022-10-31T00:50:14.830Z,5.80
2022-10-31T00:52:41.581Z,5.33
2022-10-31T00:55:08.354Z,5.60
2022-10-31T00:57:34.992Z,5.97
2022-10-31T01:00:04.277Z,6.23
2022-10-31T01:02:31.140Z,6.10
2022-10-31T01:04:58.246Z,6.20
2022-10-31T01:07:25.195Z,6.20
2022-10-31T01:09:51.905Z,6.30
2022-10-31T01:12:19.898Z,6.23
2022-10-31T01:14:46.664Z,5.80
2022-10-31T01:17:14.233Z,4.87
2022-10-31T01:19:41.316Z,5.40
2022-10-31T01:22:08.065Z,5.40
2022-10-31T01:24:35.105Z,5.53
2022-10-31T01:27:02.690Z,5.80
2022-10-31T01:29:33.098Z,5.47
2022-10-31T01:31:59.815Z,4.73
2022-10-31T01:34:26.766Z,5.23
2022-10-31T01:36:54.493Z,4.93
2022-10-31T01:39:23.529Z,5.13
2022-10-31T01:41:53.436Z,5.20
2022-10-31T01:44:20.016Z,5.43
2022-10-31T01:46:52.604Z,5.57
2022-10-31T01:49:39.976Z,5.03
2022-10-31T01:52:28.075Z,5.23
2022-10-31T01:55:12.832Z,5.50
2022-10-31T01:57:42.518Z,5.27
2022-10-31T02:00:11.576Z,5.13
2022-10-31T02:02:41.431Z,5.20
2022-10-31T02:05:13.320Z,5.30
2022-10-31T02:07:49.110Z,4.70
2022-10-31T02:10:16.393Z,5.30
2022-10-31T02:12:44.620Z,4.77
2022-10-31T02:15:11.367Z,4.83
2022-10-31T02:17:38.235Z,5.37
2022-10-31T02:20:14.094Z,5.10
2022-10-31T02:23:06.856Z,5.23
2022-10-31T02:26:09.110Z,5.63
2022-10-31T02:28:59.894Z,5.40
2022-10-31T02:31:55.796Z,5.30
2022-10-31T02:34:35.425Z,4.97
2022-10-31T02:37:14.514Z,4.80
2022-10-31T02:39:54.680Z,4.70
2022-10-31T02:42:54.254Z,4.93
2022-10-31T02:45:24.010Z,5.20
2022-10-31T02:47:54.495Z,5.33
2022-10-31T02:50:28.094Z,4.97
2022-10-31T02:52:54.724Z,5.40
2022-10-31T02:55:26.188Z,4.90
2022-10-31T02:58:12.797Z,4.63
2022-10-31T03:00:53.737Z,4.43
2022-10-31T03:03:36.318Z,5.30
2022-10-31T03:06:09.891Z,5.07
2022-10-31T03:09:05.755Z,4.80
2022-10-31T03:11:45.654Z,4.77
2022-10-31T03:15:10.007Z,4.77
2022-10-31T03:17:54.710Z,5.00
2022-10-31T03:20:30.944Z,4.83
2022-10-31T03:22:59.708Z,5.63
2022-10-31T03:25:27.084Z,5.70
2022-10-31T03:27:59.111Z,5.27
2022-10-31T03:30:26.219Z,5.37
2022-10-31T03:33:00.629Z,5.20
2022-10-31T03:35:31.242Z,5.60
2022-10-31T03:38:05.433Z,5.47
2022-10-31T03:40:37.703Z,6.17
2022-10-31T03:43:10.246Z,5.57
2022-10-31T03:45:42.972Z,6.03
2022-10-31T03:48:09.961Z,5.87
2022-10-31T03:50:46.669Z,5.87
2022-10-31T03:53:23.528Z,6.17
2022-10-31T03:56:00.944Z,5.70
2022-10-31T03:58:44.272Z,5.50
2022-10-31T04:01:17.108Z,5.53
2022-10-31T04:03:45.450Z,5.93
2022-10-31T04:06:17.677Z,5.20
2022-10-31T04:09:00.540Z,5.63
2022-10-31T04:11:31.908Z,5.87
2022-10-31T04:14:17.294Z,5.07
2022-10-31T04:16:45.632Z,5.57
2022-10-31T04:19:13.445Z,5.27
2022-10-31T04:21:40.872Z,5.23
2022-10-31T04:24:07.968Z,5.63
2022-10-31T04:26:34.688Z,5.33
2022-10-31T04:29:01.490Z,5.33
2022-10-31T04:31:28.720Z,5.07
2022-10-31T04:33:55.432Z,5.40
2022-10-31T04:36:22.076Z,4.70
2022-10-31T04:38:48.824Z,5.23
2022-10-31T04:41:29.783Z,5.20
2022-10-31T04:44:01.353Z,5.40
2022-10-31T04:46:28.214Z,4.93
2022-10-31T04:48:57.547Z,5.80
2022-10-31T04:51:24.573Z,5.53
2022-10-31T04:53:51.867Z,5.50
2022-10-31T04:56:37.127Z,5.00
2022-10-31T04:59:10.887Z,5.67
2022-10-31T05:01:55.479Z,5.83
2022-10-31T05:04:39.007Z,5.53
2022-10-31T05:07:05.703Z,5.03
2022-10-31T05:09:32.407Z,5.27
2022-10-31T05:11:59.058Z,4.73
2022-10-31T05:14:47.648Z,5.50
2022-10-31T05:17:34.345Z,5.17
2022-10-31T05:20:24.207Z,4.73
2022-10-31T05:23:14.006Z,4.70
2022-10-31T05:25:42.037Z,4.70
2022-10-31T05:28:08.925Z,4.87
2022-10-31T05:30:36.174Z,4.40
2022-10-31T05:33:04.539Z,4.60
2022-10-31T05:35:51.531Z,5.00
2022-10-31T05:38:29.702Z,4.77
2022-10-31T05:41:02.840Z,4.97
2022-10-31T05:43:31.992Z,4.60
2022-10-31T05:45:59.618Z,4.63
2022-10-31T05:48:46.271Z,4.53
2022-10-31T05:51:41.928Z,4.47
2022-10-31T05:54:12.059Z,4.40
2022-10-31T05:56:43.927Z,4.30
2022-10-31T05:59:10.579Z,4.13
2022-10-31T06:01:37.378Z,4.00
2022-10-31T06:04:07.872Z,3.83
2022-10-31T06:06:36.356Z,3.73
2022-10-31T06:09:03.164Z,4.13
2022-10-31T06:11:33.350Z,4.53
2022-10-31T06:14:02.748Z,4.40
2022-10-31T06:16:40.709Z,4.33
2022-10-31T06:19:33.593Z,4.43
2022-10-31T06:22:00.247Z,4.93
2022-10-31T06:24:28.065Z,4.57
2022-10-31T06:26:54.742Z,4.07
2022-10-31T06:29:22.068Z,4.13
2022-10-31T06:32:01.655Z,4.60
2022-10-31T06:34:29.712Z,4.77
2022-10-31T06:36:56.427Z,4.83
2022-10-31T06:39:25.401Z,4.60
2022-10-31T06:41:53.552Z,4.80
2022-10-31T06:44:21.918Z,4.60
2022-10-31T06:46:54.235Z,4.70
2022-10-31T06:49:35.895Z,4.80
2022-10-31T06:52:08.131Z,5.10
2022-10-31T06:54:35.224Z,5.33
2022-10-31T06:57:03.100Z,6.00
2022-10-31T06:59:29.994Z,5.87
2022-10-31T07:02:12.303Z,7.20
2022-10-31T07:04:40.395Z,6.73
2022-10-31T07:07:07.937Z,6.87
2022-10-31T07:09:35.986Z,6.50
2022-10-31T07:12:04.613Z,6.17
2022-10-31T07:14:34.113Z,6.33
2022-10-31T07:17:01.620Z,6.97
2022-10-31T07:19:41.072Z,5.80
2022-10-31T07:22:08.645Z,6.10
2022-10-31T07:24:36.127Z,6.17
2022-10-31T07:27:42.968Z,6.23
2022-10-31T07:30:13.487Z,6.60
2022-10-31T07:32:42.004Z,6.27
2022-10-31T07:35:10.557Z,6.00
2022-10-31T07:37:46.899Z,5.83
2022-10-31T07:40:14.912Z,6.13
2022-10-31T07:42:52.551Z,6.20
2022-10-31T07:45:37.741Z,4.83
2022-10-31T07:48:23.162Z,5.03
2022-10-31T07:51:08.399Z,5.20
2022-10-31T07:53:53.485Z,4.97
2022-10-31T07:56:25.585Z,5.30
2022-10-31T07:58:52.704Z,5.20
2022-10-31T08:01:19.353Z,5.23
2022-10-31T08:03:58.881Z,4.53
2022-10-31T08:07:03.640Z,4.67
2022-10-31T08:09:34.898Z,4.20
2022-10-31T08:12:06.615Z,3.80
2022-10-31T08:14:34.552Z,4.77
2022-10-31T08:17:01.596Z,4.30
2022-10-31T08:19:37.021Z,4.33
2022-10-31T08:22:03.936Z,4.37
2022-10-31T08:24:30.684Z,3.90
2022-10-31T08:26:58.750Z,3.73
2022-10-31T08:29:25.612Z,3.87
2022-10-31T08:31:52.284Z,3.73
2022-10-31T08:34:37.388Z,3.73
2022-10-31T08:37:22.487Z,3.93
2022-10-31T08:39:53.513Z,4.43
2022-10-31T08:42:21.475Z,4.30
2022-10-31T08:44:48.180Z,3.53
2022-10-31T08:47:14.823Z,4.20
2022-10-31T08:49:41.497Z,4.17
2022-10-31T08:52:12.014Z,3.87
2022-10-31T08:54:41.450Z,3.83
2022-10-31T08:57:37.157Z,3.70
2022-10-31T09:00:05.274Z,3.67
2022-10-31T09:03:11.776Z,3.80
2022-10-31T09:05:38.776Z,3.67
2022-10-31T09:08:16.013Z,3.90
2022-10-31T09:10:45.059Z,3.90
2022-10-31T09:13:17.993Z,3.53
2022-10-31T09:16:03.428Z,3.53
2022-10-31T09:18:33.010Z,4.20
2022-10-31T09:21:01.770Z,3.80
2022-10-31T09:23:30.845Z,3.47
2022-10-31T09:26:00.884Z,3.80
2022-10-31T09:28:27.681Z,3.67
2022-10-31T09:30:58.266Z,3.50
2022-10-31T09:33:44.962Z,3.67
2022-10-31T09:36:41.012Z,3.60
2022-10-31T09:39:22.843Z,3.57
2022-10-31T09:42:03.399Z,3.50
2022-10-31T09:44:49.024Z,3.47
2022-10-31T09:47:41.761Z,3.13
2022-10-31T09:50:43.394Z,3.50
2022-10-31T09:53:43.604Z,3.10
2022-10-31T09:56:18.682Z,3.30
2022-10-31T09:58:56.284Z,3.50
2022-10-31T10:01:35.213Z,3.33
2022-10-31T10:04:28.315Z,3.43
2022-10-31T10:07:05.366Z,3.33
2022-10-31T10:09:44.906Z,3.20
2022-10-31T10:13:01.158Z,3.13
2022-10-31T10:15:37.174Z,3.27
2022-10-31T10:18:25.737Z,2.90
2022-10-31T10:21:23.521Z,3.00
2022-10-31T10:24:18.162Z,3.27
2022-10-31T10:26:55.930Z,3.10
2022-10-31T10:29:28.685Z,3.40
2022-10-31T10:31:58.957Z,3.60
2022-10-31T10:34:38.197Z,3.53
2022-10-31T10:37:22.951Z,3.60
2022-10-31T10:39:57.197Z,3.10
2022-10-31T10:42:46.467Z,2.63
2022-10-31T10:45:37.928Z,3.70
2022-10-31T10:48:12.773Z,3.63
2022-10-31T10:50:48.916Z,3.60
2022-10-31T10:53:32.769Z,3.60
2022-10-31T10:56:04.162Z,3.30
2022-10-31T10:58:31.208Z,3.00
2022-10-31T11:00:57.998Z,3.30
2022-10-31T11:03:24.698Z,2.80
2022-10-31T11:05:53.681Z,3.20
2022-10-31T11:08:34.597Z,3.03
2022-10-31T11:11:12.082Z,3.10
2022-10-31T11:13:42.521Z,3.40
2022-10-31T11:16:41.162Z,3.03
2022-10-31T11:19:24.583Z,3.40
2022-10-31T11:21:54.313Z,2.97
2022-10-31T11:24:27.139Z,3.13
2022-10-31T11:27:10.623Z,3.13
2022-10-31T11:29:37.781Z,3.40
2022-10-31T11:32:04.718Z,3.23
2022-10-31T11:34:38.249Z,3.67
2022-10-31T11:37:15.050Z,3.47
2022-10-31T11:39:44.577Z,3.23
2022-10-31T11:42:12.397Z,3.20
2022-10-31T11:44:43.520Z,3.10
2022-10-31T11:47:17.089Z,3.10
2022-10-31T11:49:47.129Z,3.30
2022-10-31T11:52:27.049Z,3.37
2022-10-31T11:54:59.281Z,3.63
2022-10-31T11:57:30.682Z,4.07
2022-10-31T12:00:04.505Z,5.87
2022-10-31T12:02:38.848Z,3.20
2022-10-31T12:05:12.419Z,3.00
2022-10-31T12:07:39.033Z,3.47
2022-10-31T12:10:12.708Z,2.87
2022-10-31T12:12:44.236Z,3.23
2022-10-31T12:15:29.268Z,3.27
2022-10-31T12:18:12.076Z,3.13
2022-10-31T12:20:48.574Z,3.30
2022-10-31T12:23:30.672Z,3.80
2022-10-31T12:26:08.186Z,2.90
2022-10-31T12:28:45.404Z,3.10
2022-10-31T12:31:29.062Z,3.03
2022-10-31T12:34:34.398Z,3.33
2022-10-31T12:37:16.568Z,3.10
2022-10-31T12:40:22.437Z,3.30
2022-10-31T12:43:19.854Z,3.10
2022-10-31T12:46:00.190Z,3.37
2022-10-31T12:48:46.004Z,3.17
2022-10-31T12:51:12.641Z,3.37
2022-10-31T12:54:05.876Z,3.10
2022-10-31T12:56:51.071Z,3.03
2022-10-31T12:59:41.493Z,3.13
2022-10-31T13:02:14.471Z,3.33
2022-10-31T13:04:59.155Z,3.60
2022-10-31T13:07:42.188Z,3.40
2022-10-31T13:10:19.388Z,3.63
2022-10-31T13:12:50.082Z,3.60
2022-10-31T13:15:23.540Z,3.20
2022-10-31T13:17:55.349Z,3.10
2022-10-31T13:20:28.111Z,3.17
2022-10-31T13:23:17.607Z,3.40
2022-10-31T13:25:55.015Z,3.67
2022-10-31T13:28:45.969Z,3.43
2022-10-31T13:31:12.958Z,3.50
2022-10-31T13:33:58.336Z,3.20
2022-10-31T13:36:55.574Z,3.43
2022-10-31T13:39:57.588Z,3.30
2022-10-31T13:42:41.731Z,3.77
2022-10-31T13:45:20.027Z,3.83
2022-10-31T13:48:19.630Z,4.67
2022-10-31T13:51:01.008Z,3.87
2022-10-31T13:53:36.548Z,3.60
2022-10-31T13:56:14.734Z,3.30
2022-10-31T13:59:03.332Z,3.37
2022-10-31T14:01:31.049Z,3.30
2022-10-31T14:04:11.030Z,2.83
2022-10-31T14:07:13.200Z,3.53
2022-10-31T14:09:51.586Z,3.50
2022-10-31T14:12:32.540Z,3.30
2022-10-31T14:15:13.702Z,3.23
2022-10-31T14:17:48.410Z,4.20
2022-10-31T14:20:15.099Z,3.10
2022-10-31T14:22:43.164Z,3.63
2022-10-31T14:25:45.233Z,3.70
2022-10-31T14:28:35.859Z,3.50
2022-10-31T14:31:02.836Z,3.70
2022-10-31T14:33:31.270Z,3.50
2022-10-31T14:36:24.703Z,3.53
2022-10-31T14:38:56.924Z,3.20
2022-10-31T14:42:14.791Z,3.20
2022-10-31T14:44:44.180Z,3.47
2022-10-31T14:47:19.750Z,3.33
2022-10-31T14:50:25.424Z,3.23
2022-10-31T14:52:56.989Z,3.60
2022-10-31T14:55:25.335Z,3.27
2022-10-31T14:57:56.838Z,3.30
2022-10-31T15:00:25.378Z,3.50
2022-10-31T15:03:07.014Z,3.03
2022-10-31T15:05:42.078Z,3.43
2022-10-31T15:08:46.764Z,4.33
2022-10-31T15:11:19.836Z,4.20
2022-10-31T15:13:50.782Z,4.20
2022-10-31T15:16:22.048Z,3.67
2022-10-31T15:18:52.967Z,3.10
2022-10-31T15:21:21.479Z,3.10
2022-10-31T15:23:49.595Z,4.20
2022-10-31T15:26:22.912Z,4.27
2022-10-31T15:29:05.584Z,3.73
2022-10-31T15:31:33.207Z,3.43
2022-10-31T15:34:06.351Z,14.00
2022-10-31T15:36:38.260Z,4.40
2022-10-31T15:39:05.641Z,4.07
2022-10-31T15:41:44.084Z,4.30
2022-10-31T15:44:20.667Z,4.03
2022-10-31T15:46:58.469Z,4.57
2022-10-31T15:49:41.719Z,3.83
2022-10-31T15:52:45.283Z,5.20
2022-10-31T15:55:21.970Z,6.07
2022-10-31T15:57:52.058Z,4.37
2022-10-31T16:00:25.991Z,7.03
2022-10-31T16:03:15.401Z,4.90
2022-10-31T16:05:48.045Z,5.30
2022-10-31T16:08:24.610Z,4.53
2022-10-31T16:10:51.312Z,5.40
2022-10-31T16:13:18.829Z,5.23
2022-10-31T16:16:03.775Z,4.13
2022-10-31T16:18:43.298Z,4.73
2022-10-31T16:21:11.553Z,5.97
2022-10-31T16:23:44.484Z,5.50
2022-10-31T16:26:17.795Z,5.10
2022-10-31T16:29:03.231Z,4.57
2022-10-31T16:31:39.186Z,4.47
2022-10-31T16:34:14.170Z,4.03
2022-10-31T16:36:41.065Z,3.67
2022-10-31T16:39:08.331Z,4.00
2022-10-31T16:41:43.038Z,4.00
2022-10-31T16:44:27.925Z,4.67
2022-10-31T16:47:15.488Z,4.50
2022-10-31T16:49:44.079Z,4.57
2022-10-31T16:52:10.891Z,4.97
2022-10-31T16:54:38.141Z,4.40
2022-10-31T16:57:06.263Z,4.63
2022-10-31T16:59:34.823Z,4.67
2022-10-31T17:02:03.784Z,4.43
2022-10-31T17:04:30.636Z,4.23
2022-10-31T17:06:57.298Z,4.47
2022-10-31T17:09:24.010Z,5.00
2022-10-31T17:11:53.823Z,5.50
2022-10-31T17:14:20.694Z,5.77
2022-10-31T17:16:47.434Z,5.60
2022-10-31T17:19:14.420Z,4.97
2022-10-31T17:21:41.493Z,4.73
2022-10-31T17:24:13.473Z,4.80
2022-10-31T17:26:40.326Z,4.20
2022-10-31T17:29:07.044Z,4.63
2022-10-31T17:31:36.656Z,4.17
2022-10-31T17:34:05.168Z,4.00
2022-10-31T17:36:35.398Z,4.37
2022-10-31T17:39:05.308Z,4.60
2022-10-31T17:41:32.039Z,5.07
2022-10-31T17:43:59.666Z,4.53
2022-10-31T17:46:28.294Z,4.60
2022-10-31T17:48:55.073Z,5.03
2022-10-31T17:51:21.856Z,5.27
2022-10-31T17:53:48.528Z,7.23
2022-10-31T17:56:15.157Z,8.30
2022-10-31T17:58:41.918Z,10.33
2022-10-31T18:01:10.930Z,6.03
2022-10-31T18:03:38.627Z,6.33
2022-10-31T18:06:05.949Z,5.93
2022-10-31T18:08:36.373Z,6.83
2022-10-31T18:11:15.830Z,6.27
2022-10-31T18:13:42.617Z,6.00
2022-10-31T18:16:11.191Z,6.13
2022-10-31T18:18:38.020Z,5.00
2022-10-31T18:21:05.055Z,5.27
2022-10-31T18:23:31.702Z,5.30
2022-10-31T18:25:58.429Z,5.90
2022-10-31T18:28:25.323Z,5.50
2022-10-31T18:30:52.029Z,5.03
2022-10-31T18:33:18.750Z,5.13
2022-10-31T18:35:46.158Z,5.30
2022-10-31T18:38:12.800Z,5.20
2022-10-31T18:40:39.445Z,5.07
2022-10-31T18:43:06.104Z,4.70
2022-10-31T18:45:46.044Z,5.57
2022-10-31T18:48:14.639Z,4.63
2022-10-31T18:50:42.217Z,4.60
2022-10-31T18:53:09.152Z,4.50
2022-10-31T18:55:41.534Z,5.10
2022-10-31T18:58:10.993Z,5.53
2022-10-31T19:00:38.577Z,5.20
2022-10-31T19:03:06.111Z,4.87
2022-10-31T19:05:32.921Z,4.67
2022-10-31T19:07:59.562Z,5.00
2022-10-31T19:10:26.289Z,5.03
2022-10-31T19:12:52.920Z,5.20
2022-10-31T19:15:19.615Z,5.20
2022-10-31T19:17:46.548Z,5.03
2022-10-31T19:20:14.039Z,6.43
2022-10-31T19:22:40.804Z,7.10
2022-10-31T19:25:10.464Z,6.33
2022-10-31T19:27:38.401Z,5.27
2022-10-31T19:30:06.295Z,5.00
2022-10-31T19:32:33.165Z,5.67
2022-10-31T19:34:59.885Z,4.80
2022-10-31T19:37:26.552Z,6.00
2022-10-31T19:39:53.168Z,5.47
2022-10-31T19:42:19.951Z,6.33
2022-10-31T19:44:46.591Z,6.33
2022-10-31T19:47:13.565Z,5.67
2022-10-31T19:49:40.206Z,5.57
2022-10-31T19:52:06.915Z,5.97
2022-10-31T19:54:33.529Z,5.30
2022-10-31T19:57:00.203Z,4.90
2022-10-31T19:59:26.885Z,4.80
2022-10-31T20:01:53.682Z,5.33
2022-10-31T20:04:20.444Z,4.90
2022-10-31T20:06:47.258Z,4.40
2022-10-31T20:09:14.643Z,4.40
2022-10-31T20:11:43.206Z,4.50
2022-10-31T20:14:12.716Z,4.00
2022-10-31T20:16:39.831Z,4.03
2022-10-31T20:19:06.661Z,4.30
2022-10-31T20:21:39.605Z,4.47
2022-10-31T20:24:08.441Z,5.20
2022-10-31T20:26:35.561Z,5.57
2022-10-31T20:29:03.658Z,4.10
2022-10-31T20:31:35.107Z,5.70
2022-10-31T20:34:02.458Z,5.23
2022-10-31T20:36:30.743Z,5.00
2022-10-31T20:38:58.558Z,6.63
2022-10-31T20:41:25.429Z,5.03
2022-10-31T20:43:52.644Z,4.07
2022-10-31T20:46:26.647Z,4.07
2022-10-31T20:48:54.437Z,4.47
2022-10-31T20:51:24.744Z,3.63
2022-10-31T20:53:52.585Z,3.87
2022-10-31T20:56:21.309Z,3.93
2022-10-31T20:58:48.763Z,3.50
2022-10-31T21:01:21.199Z,4.43
2022-10-31T21:03:48.343Z,4.40
2022-10-31T21:06:18.173Z,4.10
2022-10-31T21:08:45.586Z,4.57
2022-10-31T21:11:18.590Z,3.80
2022-10-31T21:13:46.516Z,4.40
2022-10-31T21:16:28.221Z,3.67
2022-10-31T21:18:55.236Z,4.23
2022-10-31T21:21:28.980Z,5.00
2022-10-31T21:24:01.802Z,4.10
2022-10-31T21:26:31.024Z,4.40
2022-10-31T21:28:58.815Z,4.10
2022-10-31T21:31:26.443Z,4.70
2022-10-31T21:33:53.099Z,4.60
2022-10-31T21:36:20.169Z,4.87
2022-10-31T21:38:54.033Z,4.57
2022-10-31T21:41:21.531Z,4.67
2022-10-31T21:43:50.123Z,4.27
2022-10-31T21:46:19.269Z,4.67
2022-10-31T21:48:46.340Z,4.20
2022-10-31T21:51:16.302Z,4.20
2022-10-31T21:54:01.688Z,4.43
2022-10-31T21:56:28.463Z,4.10
2022-10-31T21:58:55.837Z,4.03
2022-10-31T22:01:25.630Z,4.50
2022-10-31T22:03:52.801Z,4.40
2022-10-31T22:06:19.923Z,4.87
2022-10-31T22:08:47.321Z,3.93
2022-10-31T22:11:16.483Z,4.40
2022-10-31T22:13:45.467Z,4.20
2022-10-31T22:16:17.779Z,4.00
2022-10-31T22:18:45.379Z,4.10
2022-10-31T22:21:14.512Z,4.43
2022-10-31T22:23:42.231Z,3.93
2022-10-31T22:26:14.347Z,4.07
2022-10-31T22:28:42.796Z,3.93
2022-10-31T22:33:44.965Z,4.17
2022-10-31T22:36:13.828Z,4.40
2022-10-31T22:38:41.096Z,3.90
2022-10-31T22:41:09.937Z,3.80
2022-10-31T22:43:37.123Z,4.03
2022-10-31T22:46:06.276Z,4.40
2022-10-31T22:48:41.763Z,3.77
2022-10-31T22:51:17.295Z,4.00
2022-10-31T22:53:44.528Z,4.50
2022-10-31T22:56:14.591Z,3.93
2022-10-31T22:58:41.575Z,4.30
2022-10-31T23:01:10.876Z,4.00
2022-10-31T23:03:37.917Z,4.43
2022-10-31T23:06:06.438Z,4.03
2022-10-31T23:08:36.476Z,4.33
2022-10-31T23:11:13.969Z,4.53
2022-10-31T23:13:59.355Z,3.67
2022-10-31T23:16:26.111Z,4.33
2022-10-31T23:18:52.799Z,4.17
2022-10-31T23:21:38.133Z,4.50
2022-10-31T23:24:04.982Z,3.93
2022-10-31T23:26:50.378Z,4.27
2022-10-31T23:29:17.004Z,4.63
2022-10-31T23:31:43.649Z,3.93
2022-10-31T23:34:10.415Z,4.03
2022-10-31T23:36:37.148Z,3.90
2022-10-31T23:39:03.907Z,4.07
2022-10-31T23:41:30.620Z,3.70
2022-10-31T23:43:57.262Z,4.73
2022-10-31T23:46:23.947Z,4.33
2022-10-31T23:48:50.757Z,4.70
2022-10-31T23:51:17.509Z,4.10
2022-10-31T23:53:45.451Z,4.70
2022-10-31T23:56:13.040Z,4.60
2022-10-31T23:58:40.132Z,4.10
